Time;durP1;ratioP1;P1;durP2;ratioP2;P2;SDS_P1;SDS_P2;PMS_P1;PMS_P2;Temp;Humidity;BMP_temperature;BMP_pressure;BME280_temperature;BME280_humidity;BME280_pressure;Samples;Min_cycle;Max_cycle;Signal;HPM_P1;HPM_P2
2022/07/18 00:00:05;;;;;;;3.72;1.83;;;;;;;25.42;35.81;95643.78;5005132;28;20026;-67
2022/07/18 00:02:31;;;;;;;2.35;1.70;;;;;;;25.42;35.85;95654.72;5004631;28;20025;-64
2022/07/18 00:04:56;;;;;;;4.05;1.70;;;;;;;25.37;35.68;95650.75;5003954;28;20026;-66
2022/07/18 00:07:22;;;;;;;2.85;1.65;;;;;;;25.36;35.61;95656.75;5004117;28;20077;-68
2022/07/18 00:09:47;;;;;;;5.00;2.13;;;;;;;25.33;35.94;95649.56;5004644;28;20421;-68
2022/07/18 00:12:13;;;;;;;2.58;1.85;;;;;;;25.34;36.02;95656.50;5005221;28;20029;-70
2022/07/18 00:14:38;;;;;;;2.83;1.50;;;;;;;25.29;35.80;95654.56;5006218;28;20484;-71
2022/07/18 00:17:05;;;;;;;3.08;1.67;;;;;;;25.30;35.56;95650.56;5008655;28;20034;-66
2022/07/18 00:19:30;;;;;;;3.83;1.73;;;;;;;25.25;35.48;95647.88;5009048;28;20507;-70
2022/07/18 00:21:56;;;;;;;3.15;1.58;;;;;;;25.26;35.19;95650.09;5008785;28;20116;-67
2022/07/18 00:24:21;;;;;;;5.30;1.85;;;;;;;25.25;35.52;95648.63;5009058;28;20028;-66
2022/07/18 00:26:46;;;;;;;3.28;1.50;;;;;;;25.25;35.39;95645.88;5007736;28;20702;-64
2022/07/18 00:29:12;;;;;;;3.03;1.50;;;;;;;25.27;35.18;95657.03;5007448;28;20444;-68
2022/07/18 00:31:38;;;;;;;2.63;1.42;;;;;;;25.21;35.17;95648.13;4989679;28;20018;-70
2022/07/18 00:34:03;;;;;;;3.38;1.60;;;;;;;25.17;35.06;95647.69;5006936;28;20021;-62
2022/07/18 00:36:29;;;;;;;3.08;1.33;;;;;;;25.17;35.07;95653.16;5007345;28;20551;-62
2022/07/18 00:38:54;;;;;;;1.98;1.45;;;;;;;25.12;35.06;95642.97;5006805;28;20029;-65
2022/07/18 00:41:20;;;;;;;2.15;1.45;;;;;;;25.14;34.89;95645.19;4989441;28;20026;-62
2022/07/18 00:43:46;;;;;;;2.30;1.40;;;;;;;25.11;35.30;95636.03;5007226;28;20026;-64
2022/07/18 00:46:11;;;;;;;2.97;1.58;;;;;;;25.12;34.63;95642.22;5006949;28;20053;-69
2022/07/18 00:48:41;;;;;;;2.83;1.50;;;;;;;25.09;34.59;95646.72;4992972;28;20460;-66
2022/07/18 00:51:06;;;;;;;2.15;1.30;;;;;;;25.07;34.63;95646.47;5006643;28;20353;-66
2022/07/18 00:53:32;;;;;;;1.75;1.25;;;;;;;25.06;34.43;95658.66;5006883;28;20042;-65
2022/07/18 00:55:57;;;;;;;3.45;1.60;;;;;;;24.98;35.12;95641.28;5006661;28;20033;-62
2022/07/18 00:58:23;;;;;;;2.88;1.38;;;;;;;24.97;34.78;95661.66;4973026;28;20457;-67
2022/07/18 01:03:33;;;;;;;1.60;1.40;;;;;;;24.89;35.01;95655.22;5006735;28;20049;-63
2022/07/18 01:05:58;;;;;;;3.58;1.42;;;;;;;24.88;35.06;95653.72;5006610;28;20030;-62
2022/07/18 01:08:23;;;;;;;2.72;1.35;;;;;;;24.87;35.19;95651.50;5006723;28;20030;-64
2022/07/18 01:10:51;;;;;;;4.90;1.40;;;;;;;24.84;34.95;95656.00;5006708;28;20055;-64
2022/07/18 01:13:17;;;;;;;1.80;1.38;;;;;;;24.83;34.87;95651.78;4990051;28;20037;-63
2022/07/18 01:15:42;;;;;;;1.80;1.05;;;;;;;24.84;34.53;95647.81;4984198;28;20034;-69
2022/07/18 01:18:07;;;;;;;1.60;1.13;;;;;;;24.82;34.98;95655.00;5008008;28;20042;-63
2022/07/18 01:20:33;;;;;;;3.47;1.30;;;;;;;24.77;34.41;95646.84;5007285;28;20022;-63
2022/07/18 01:22:59;;;;;;;2.13;1.50;;;;;;;24.77;34.27;95646.84;5009628;28;20026;-66
2022/07/18 01:25:24;;;;;;;2.10;1.42;;;;;;;24.71;34.56;95637.91;5010105;28;20029;-64
2022/07/18 01:27:50;;;;;;;2.25;1.30;;;;;;;24.68;34.33;95638.91;4977195;28;20026;-63
2022/07/18 01:30:15;;;;;;;3.30;1.52;;;;;;;24.70;34.52;95647.38;4996206;28;20030;-62
2022/07/18 01:32:41;;;;;;;2.17;1.17;;;;;;;24.66;34.82;95641.41;5006380;28;20037;-63
2022/07/18 01:35:07;;;;;;;1.77;1.38;;;;;;;24.63;34.20;95642.44;4988163;28;20186;-62
2022/07/18 01:37:33;;;;;;;2.13;1.35;;;;;;;24.62;34.34;95646.38;4988572;28;20677;-64
2022/07/18 01:39:58;;;;;;;1.40;1.10;;;;;;;24.60;34.45;95643.44;4987720;28;20032;-62
2022/07/18 01:42:24;;;;;;;1.88;1.30;;;;;;;24.58;34.24;95643.94;5005633;28;20033;-72
2022/07/18 01:44:49;;;;;;;2.00;1.25;;;;;;;24.62;33.89;95635.47;5005543;28;20018;-67
2022/07/18 01:47:15;;;;;;;2.92;1.40;;;;;;;24.61;34.07;95628.53;5005786;28;20527;-66
2022/07/18 01:49:41;;;;;;;2.47;1.30;;;;;;;24.60;34.34;95621.59;5005520;28;20026;-66
2022/07/18 01:52:06;;;;;;;2.53;1.40;;;;;;;24.62;34.16;95630.00;4987310;28;20103;-62
2022/07/18 01:54:32;;;;;;;2.00;1.30;;;;;;;24.66;34.20;95633.22;5005728;28;20550;-62
2022/07/18 01:56:59;;;;;;;2.60;1.42;;;;;;;24.66;33.75;95635.97;5005398;28;20073;-65
2022/07/18 01:59:24;;;;;;;1.65;1.00;;;;;;;24.63;33.74;95631.50;5003912;28;20682;-62
2022/07/18 02:01:50;;;;;;;2.22;1.25;;;;;;;24.59;33.90;95628.31;5005302;28;20033;-63
2022/07/18 02:04:16;;;;;;;2.28;1.30;;;;;;;24.60;33.86;95632.50;5004381;28;20026;-65
2022/07/18 02:06:41;;;;;;;3.13;1.05;;;;;;;24.54;33.94;95623.59;5004853;28;20026;-63
2022/07/18 02:09:07;;;;;;;1.50;1.00;;;;;;;24.51;34.04;95628.09;5004961;28;20030;-63
2022/07/18 02:11:33;;;;;;;4.55;1.23;;;;;;;24.52;33.72;95631.53;5005076;28;20034;-70
2022/07/18 02:13:58;;;;;;;4.45;1.30;;;;;;;24.50;33.68;95628.59;5004892;28;20034;-63
2022/07/18 02:16:24;;;;;;;2.38;1.35;;;;;;;24.45;34.03;95637.50;5004805;28;20425;-65
2022/07/18 02:18:49;;;;;;;2.67;1.30;;;;;;;24.41;33.86;95645.25;5004625;28;20026;-62
2022/07/18 02:21:14;;;;;;;1.60;1.10;;;;;;;24.37;34.00;95642.75;5004794;28;20108;-67
2022/07/18 02:23:41;;;;;;;5.05;1.30;;;;;;;24.37;34.17;95631.81;5004938;28;20113;-65
2022/07/18 02:26:07;;;;;;;3.83;1.40;;;;;;;24.17;34.21;95617.72;5004335;28;20032;-63
2022/07/18 02:28:32;;;;;;;2.78;1.30;;;;;;;24.31;33.77;95643.97;5004918;28;20034;-63
2022/07/18 02:30:58;;;;;;;1.60;1.30;;;;;;;24.26;33.95;95642.03;5005041;28;20479;-65
2022/07/18 02:33:23;;;;;;;2.30;1.30;;;;;;;24.22;33.89;95641.53;5004597;28;20033;-70
2022/07/18 02:35:49;;;;;;;2.75;1.30;;;;;;;24.20;34.29;95644.00;5004374;28;20509;-68
2022/07/18 02:38:14;;;;;;;3.55;1.10;;;;;;;24.16;34.49;95648.97;5003918;28;20444;-65
2022/07/18 02:40:39;;;;;;;3.92;1.27;;;;;;;24.12;34.36;95653.94;5005215;28;20041;-64
2022/07/18 02:43:05;;;;;;;3.60;1.30;;;;;;;24.07;34.27;95662.16;5005085;28;20034;-65
2022/07/18 02:45:30;;;;;;;2.83;0.98;;;;;;;24.04;34.47;95666.59;5005766;28;20554;-67
2022/07/18 02:47:56;;;;;;;2.95;1.05;;;;;;;24.03;33.91;95665.09;5005411;28;20105;-72
2022/07/18 02:50:21;;;;;;;2.70;1.13;;;;;;;23.99;34.42;95672.81;5005598;28;20386;-68
2022/07/18 02:52:47;;;;;;;2.40;1.20;;;;;;;23.98;34.38;95676.78;5005646;28;20030;-72
2022/07/18 02:55:13;;;;;;;2.70;1.02;;;;;;;23.89;34.50;95668.84;5005464;28;20491;-72
2022/07/18 02:57:38;;;;;;;3.25;1.00;;;;;;;23.90;34.62;95675.78;4977890;28;20144;-64
2022/07/18 03:00:05;;;;;;;3.15;1.20;;;;;;;23.87;34.78;95671.34;4982574;28;20500;-69
2022/07/18 03:02:30;;;;;;;1.30;0.98;;;;;;;23.85;34.46;95672.31;5004621;28;20036;-66
2022/07/18 03:04:56;;;;;;;3.20;1.40;;;;;;;23.85;34.34;95672.31;5005406;28;20041;-68
2022/07/18 03:07:21;;;;;;;3.67;1.00;;;;;;;23.81;34.43;95677.28;5004862;28;20030;-67
2022/07/18 03:09:47;;;;;;;2.83;1.20;;;;;;;23.78;34.48;95683.72;5005364;28;20750;-68
2022/07/18 03:12:12;;;;;;;2.10;1.20;;;;;;;23.73;34.79;95676.28;5004821;28;20033;-72
2022/07/18 03:14:38;;;;;;;2.30;1.17;;;;;;;23.72;34.70;95674.78;5005655;28;20034;-68
2022/07/18 03:17:03;;;;;;;2.38;1.13;;;;;;;23.65;34.33;95667.13;5005429;28;20504;-66
2022/07/18 03:19:29;;;;;;;2.42;1.27;;;;;;;23.70;34.34;95680.00;4987248;28;20014;-72
2022/07/18 03:21:54;;;;;;;2.15;1.00;;;;;;;23.68;34.07;95680.50;5006315;28;20030;-67
2022/07/18 03:24:20;;;;;;;1.80;1.00;;;;;;;23.68;34.47;95677.03;4988486;28;20045;-71
2022/07/18 03:26:45;;;;;;;1.88;1.10;;;;;;;23.63;34.31;95688.63;5005526;28;20736;-69
2022/07/18 03:29:11;;;;;;;3.38;1.08;;;;;;;23.58;34.52;95681.22;5006085;28;20030;-73
2022/07/18 03:31:36;;;;;;;2.88;1.00;;;;;;;23.56;34.38;95673.53;4988506;28;20085;-73
2022/07/18 03:34:02;;;;;;;3.20;1.42;;;;;;;23.54;34.79;95676.00;5006489;28;20041;-72
2022/07/18 03:36:28;;;;;;;2.92;1.05;;;;;;;23.55;34.76;95674.00;5005680;28;20779;-71
2022/07/18 03:38:53;;;;;;;2.65;1.25;;;;;;;23.52;34.81;95675.00;5006071;28;20034;-69
2022/07/18 03:41:19;;;;;;;3.08;1.20;;;;;;;23.50;35.37;95685.66;5005931;28;20030;-72
2022/07/18 03:43:44;;;;;;;2.40;1.20;;;;;;;23.44;34.72;95677.47;5005225;28;20474;-73
2022/07/18 03:46:10;;;;;;;2.17;1.10;;;;;;;23.49;34.75;95686.91;5005386;28;20489;-70
2022/07/18 03:48:35;;;;;;;1.85;1.00;;;;;;;23.50;34.96;95685.66;5005941;28;20749;-72
2022/07/18 03:51:01;;;;;;;2.22;1.30;;;;;;;23.48;34.90;95682.66;4992970;28;20946;-75
2022/07/18 03:53:27;;;;;;;2.30;1.20;;;;;;;23.51;34.54;95681.69;5010690;28;20469;-74
2022/07/18 03:55:53;;;;;;;4.35;1.30;;;;;;;23.48;34.46;95683.44;5011111;28;20408;-73
2022/07/18 03:58:18;;;;;;;3.38;1.45;;;;;;;23.49;34.85;95678.72;5010084;28;20034;-73
2022/07/18 04:00:56;;;;;;;1.60;1.20;;;;;;;23.40;34.84;95670.78;5012690;28;20021;-65
2022/07/18 04:03:22;;;;;;;4.78;1.27;;;;;;;23.46;35.42;95685.88;5019058;28;20036;-63
2022/07/18 04:05:47;;;;;;;2.50;1.20;;;;;;;23.44;34.98;95698.53;5006362;28;20050;-65
2022/07/18 04:08:13;;;;;;;2.83;1.30;;;;;;;23.41;35.03;95694.81;5020542;28;20157;-64
2022/07/18 04:10:39;;;;;;;2.00;0.98;;;;;;;23.42;34.85;95701.00;5015203;28;20080;-63
2022/07/18 04:13:05;;;;;;;2.03;1.23;;;;;;;23.43;35.00;95697.03;5009942;28;20038;-63
2022/07/18 04:15:31;;;;;;;2.38;1.17;;;;;;;23.41;34.90;95683.16;4992071;28;20037;-63
2022/07/18 04:17:56;;;;;;;2.10;1.10;;;;;;;23.40;35.41;95696.03;4991531;28;20489;-63
2022/07/18 04:20:22;;;;;;;3.22;1.05;;;;;;;23.36;34.88;95691.31;5009896;28;20044;-62
2022/07/18 04:22:52;;;;;;;2.00;1.20;;;;;;;23.40;35.32;95698.03;5009640;28;20030;-65
2022/07/18 04:25:18;;;;;;;3.17;1.27;;;;;;;23.41;34.82;95694.06;5007939;28;20033;-63
2022/07/18 04:27:44;;;;;;;1.80;1.08;;;;;;;23.41;34.63;95694.06;5007511;28;20528;-67
2022/07/18 04:30:10;;;;;;;4.13;1.20;;;;;;;23.40;34.66;95684.41;4992702;28;20032;-66
2022/07/18 04:32:36;;;;;;;2.17;1.20;;;;;;;23.46;34.73;95685.16;5000699;28;20034;-67
2022/07/18 04:35:02;;;;;;;2.35;1.30;;;;;;;23.46;34.97;95679.69;5017076;28;20068;-63
2022/07/18 04:37:30;;;;;;;3.17;1.27;;;;;;;23.48;34.90;95682.66;5021478;28;20033;-64
2022/07/18 04:39:56;;;;;;;2.53;1.05;;;;;;;23.50;35.34;95674.75;4995426;28;20118;-71
2022/07/18 04:42:21;;;;;;;2.63;1.20;;;;;;;23.52;34.83;95675.00;5007062;28;20115;-72
2022/07/18 04:44:47;;;;;;;1.77;1.13;;;;;;;23.54;34.40;95680.69;4988894;28;20042;-66
2022/07/18 04:47:12;;;;;;;1.95;1.10;;;;;;;23.57;34.42;95674.25;5006704;28;20034;-70
2022/07/18 04:49:38;;;;;;;3.75;1.45;;;;;;;23.55;34.18;95665.84;4985532;28;20034;-70
2022/07/18 04:52:04;;;;;;;2.90;1.10;;;;;;;23.62;34.11;95670.81;4989523;28;20077;-64
2022/07/18 04:54:29;;;;;;;3.17;1.17;;;;;;;23.65;33.66;95667.13;4970301;28;20027;-63
2022/07/18 04:56:54;;;;;;;1.55;1.02;;;;;;;23.67;33.53;95678.28;4971147;28;20772;-69
2022/07/18 04:59:20;;;;;;;3.35;1.10;;;;;;;23.69;32.93;95671.09;4994525;28;20029;-73
2022/07/18 05:01:45;;;;;;;4.38;1.38;;;;;;;23.74;32.97;95675.06;5007249;28;20045;-65
2022/07/18 05:04:11;;;;;;;4.25;1.42;;;;;;;23.78;33.28;95678.25;4989353;28;20448;-71
2022/07/18 05:06:36;;;;;;;3.13;1.27;;;;;;;23.80;33.71;95664.91;4991611;28;20092;-69
2022/07/18 05:09:02;;;;;;;2.60;1.30;;;;;;;23.86;33.58;95671.09;4993896;28;20029;-72
2022/07/18 05:11:27;;;;;;;2.75;1.00;;;;;;;23.93;34.15;95674.81;4994187;28;20053;-70
2022/07/18 05:13:53;;;;;;;3.38;1.50;;;;;;;23.97;33.90;95669.09;5007635;28;20126;-71
2022/07/18 05:16:18;;;;;;;1.98;1.20;;;;;;;24.05;33.49;95676.28;5008209;28;20014;-67
2022/07/18 05:18:44;;;;;;;3.47;1.23;;;;;;;23.86;33.46;95630.91;4989871;28;20188;-69
2022/07/18 05:21:09;;;;;;;4.35;1.50;;;;;;;24.27;33.21;95665.31;5006453;28;20057;-68
2022/07/18 05:23:35;;;;;;;5.22;1.27;;;;;;;24.40;33.30;95668.31;5006487;28;20080;-70
2022/07/18 05:26:00;;;;;;;3.10;1.05;;;;;;;24.52;32.72;95675.25;5005396;28;20495;-67
2022/07/18 05:28:26;;;;;;;3.42;1.65;;;;;;;24.65;32.91;95672.69;4993451;28;20048;-69
2022/07/18 05:30:54;;;;;;;3.38;1.20;;;;;;;24.80;32.51;95668.44;5005646;28;20026;-68
2022/07/18 05:33:19;;;;;;;2.03;1.17;;;;;;;24.93;32.44;95677.56;5001760;28;20034;-68
2022/07/18 05:35:45;;;;;;;3.95;1.00;;;;;;;25.11;31.30;95671.56;5006352;28;20642;-70
2022/07/18 05:38:10;;;;;;;3.30;1.10;;;;;;;25.18;31.41;95660.06;5003609;28;20038;-68
2022/07/18 05:40:36;;;;;;;4.65;1.50;;;;;;;25.35;31.17;95663.44;4987530;28;20066;-69
2022/07/18 05:43:01;;;;;;;4.47;1.08;;;;;;;25.54;31.32;95675.28;4995668;28;20026;-64
2022/07/18 05:45:26;;;;;;;2.78;1.38;;;;;;;25.56;31.50;95670.03;5000417;28;20013;-72
2022/07/18 05:47:53;;;;;;;3.35;1.20;;;;;;;25.74;31.38;95670.19;5004510;28;20041;-73
2022/07/18 05:50:18;;;;;;;4.32;1.42;;;;;;;25.88;30.86;95672.56;5006155;28;20030;-72
2022/07/18 05:52:43;;;;;;;4.32;1.50;;;;;;;25.99;30.73;95671.72;4978787;28;20408;-70
2022/07/18 05:55:10;;;;;;;3.42;1.17;;;;;;;26.13;30.55;95681.53;4997676;28;20065;-65
2022/07/18 05:57:35;;;;;;;5.15;1.33;;;;;;;26.23;30.27;95675.22;4973192;28;20027;-69
2022/07/18 06:00:05;;;;;;;3.47;1.10;;;;;;;26.30;30.15;95680.91;5004332;28;20048;-65
2022/07/18 06:02:30;;;;;;;;;;;;;;;26.49;29.92;95686.47;5014049;28;20037;-75
2022/07/18 06:04:58;;;;;;;2.58;1.15;;;;;;;26.51;29.74;95678.47;4987976;28;19930;-65
2022/07/18 06:07:23;;;;;;;2.00;1.15;;;;;;;26.53;29.22;95686.91;4985950;28;20090;-74
2022/07/18 06:09:48;;;;;;;2.60;1.40;;;;;;;26.68;29.73;95676.28;5007048;28;20029;-74
2022/07/18 06:12:15;;;;;;;2.67;1.20;;;;;;;26.76;28.92;95666.25;5006544;28;20034;-76
2022/07/18 06:14:40;;;;;;;2.58;1.10;;;;;;;26.88;29.05;95673.81;4988045;28;20125;-71
2022/07/18 06:17:06;;;;;;;3.05;1.20;;;;;;;26.95;28.75;95682.25;5003107;28;20025;-71
2022/07/18 06:19:31;;;;;;;3.33;1.20;;;;;;;27.03;28.92;95674.91;4992495;28;21131;-67
2022/07/18 06:21:57;;;;;;;3.05;1.10;;;;;;;27.10;28.87;95679.06;5001324;28;20036;-74
2022/07/18 06:24:22;;;;;;;4.63;1.00;;;;;;;27.15;28.21;95675.50;4988930;28;20025;-69
2022/07/18 06:26:49;;;;;;;2.03;1.00;;;;;;;27.18;28.21;95669.72;5008110;28;20077;-72
2022/07/18 06:29:15;;;;;;;3.47;1.30;;;;;;;27.19;27.42;95673.97;5008818;28;20029;-75
2022/07/18 06:31:40;;;;;;;2.47;1.15;;;;;;;27.26;27.80;95670.59;5007882;28;20021;-73
2022/07/18 06:34:06;;;;;;;2.53;0.80;;;;;;;27.37;27.37;95671.22;4975766;28;20068;-69
2022/07/18 06:36:31;;;;;;;3.97;1.42;;;;;;;27.44;27.51;95672.59;4998626;28;20061;-73
2022/07/18 06:38:57;;;;;;;4.28;1.08;;;;;;;27.52;27.56;95666.03;4985936;28;20029;-72
2022/07/18 06:41:22;;;;;;;8.13;1.80;;;;;;;27.54;26.76;95668.25;5004497;28;20021;-80
2022/07/18 06:43:48;;;;;;;2.10;1.00;;;;;;;27.55;27.16;95659.50;5005201;28;20107;-74
2022/07/18 06:46:13;;;;;;;3.15;0.90;;;;;;;27.54;26.71;95668.25;5009139;28;20500;-80
2022/07/18 06:48:39;;;;;;;4.13;1.20;;;;;;;27.56;27.03;95657.50;5009620;28;20124;-72
2022/07/18 06:51:05;;;;;;;3.50;1.30;;;;;;;27.52;26.88;95654.31;5007264;28;20018;-73
2022/07/18 06:53:30;;;;;;;2.83;1.10;;;;;;;27.39;27.19;95646.72;5009219;28;20014;-64
2022/07/18 06:55:56;;;;;;;4.45;1.17;;;;;;;27.37;27.44;95645.78;4992851;28;20041;-75
2022/07/18 06:58:22;;;;;;;2.53;1.45;;;;;;;27.31;27.45;95642.38;4987798;28;20044;-72
2022/07/18 07:00:47;;;;;;;4.03;1.10;;;;;;;27.24;27.76;95656.69;5008120;28;20030;-72
2022/07/18 07:03:13;;;;;;;3.28;1.20;;;;;;;26.99;27.54;95622.34;5005278;28;20029;-71
2022/07/18 07:05:39;;;;;;;4.18;1.10;;;;;;;27.10;27.45;95635.94;5005301;28;20033;-68
2022/07/18 07:08:04;;;;;;;2.10;0.98;;;;;;;26.95;27.51;95630.16;4977558;28;20035;-71
2022/07/18 07:10:30;;;;;;;4.18;1.00;;;;;;;26.95;27.75;95640.34;4988774;28;20022;-73
2022/07/18 07:12:55;;;;;;;7.50;1.25;;;;;;;26.90;27.75;95639.16;4987248;28;20030;-73
2022/07/18 07:15:22;;;;;;;3.00;1.10;;;;;;;26.89;27.69;95637.72;4984469;28;20265;-74
2022/07/18 07:17:48;;;;;;;3.95;1.20;;;;;;;26.80;28.15;95646.25;4969420;28;20088;-68
2022/07/18 07:20:13;;;;;;;2.13;1.10;;;;;;;26.73;28.16;95645.38;4992709;28;21282;-74
2022/07/18 07:22:44;;;;;;;2.80;1.17;;;;;;;26.67;27.99;95641.94;4996495;28;20406;-75
2022/07/18 07:25:10;;;;;;;3.15;0.98;;;;;;;26.59;28.42;95630.06;4988487;28;20049;-75
2022/07/18 07:27:36;;;;;;;3.75;1.20;;;;;;;26.66;28.17;95637.72;5006441;28;20115;-72
2022/07/18 07:30:01;;;;;;;2.65;1.20;;;;;;;26.65;27.70;95633.47;5004542;28;20543;-67
2022/07/18 07:32:26;;;;;;;2.92;1.17;;;;;;;26.53;28.20;95629.38;4998440;28;20097;-78
2022/07/18 07:34:52;;;;;;;2.45;1.02;;;;;;;26.52;28.60;95636.88;5004128;28;20046;-73
2022/07/18 07:37:17;;;;;;;1.73;1.20;;;;;;;26.55;28.40;95646.06;4998565;28;20037;-71
2022/07/18 07:39:43;;;;;;;2.90;1.60;;;;;;;26.50;28.08;95633.16;5012351;28;20060;-74
2022/07/18 07:42:17;;;;;;;2.28;0.93;;;;;;;26.49;27.83;95637.16;5018169;28;21952;-70
2022/07/18 07:44:43;;;;;;;3.83;1.33;;;;;;;26.44;27.77;95637.94;5012240;28;20022;-68
2022/07/18 07:47:08;;;;;;;4.05;1.25;;;;;;;26.44;28.34;95640.69;5010622;28;20437;-74
2022/07/18 07:49:34;;;;;;;2.95;1.35;;;;;;;26.41;28.06;95649.94;5007354;28;20030;-74
2022/07/18 07:52:00;;;;;;;2.35;0.95;;;;;;;26.41;27.95;95636.25;5004265;28;20026;-70
2022/07/18 07:54:26;;;;;;;2.35;1.00;;;;;;;26.43;27.67;95639.22;5001116;28;20116;-63
2022/07/18 07:56:51;;;;;;;2.38;0.98;;;;;;;26.38;27.94;95642.75;4989369;28;20480;-67
2022/07/18 07:59:17;;;;;;;4.28;1.35;;;;;;;26.43;27.18;95644.69;5003460;28;20041;-64
2022/07/18 08:01:42;;;;;;;4.57;1.42;;;;;;;26.44;26.90;95651.66;5000423;28;20060;-74
2022/07/18 08:04:08;;;;;;;2.28;1.10;;;;;;;26.39;26.91;95655.19;5007327;28;20037;-64
2022/07/18 08:06:33;;;;;;;2.88;1.10;;;;;;;26.40;26.68;95645.72;5002671;28;20429;-62
2022/07/18 08:08:59;;;;;;;3.70;1.10;;;;;;;26.31;27.14;95637.84;5007352;28;20030;-63
2022/07/18 08:11:24;;;;;;;3.30;1.00;;;;;;;26.29;27.14;95641.09;5007000;28;20098;-65
2022/07/18 08:13:50;;;;;;;2.28;0.90;;;;;;;26.37;27.39;95646.75;5005018;28;20045;-63
2022/07/18 08:16:15;;;;;;;1.83;1.00;;;;;;;26.40;26.70;95643.00;5006240;28;20468;-62
2022/07/18 08:18:41;;;;;;;3.47;0.98;;;;;;;26.33;27.01;95646.28;5004577;28;20462;-61
2022/07/18 08:21:06;;;;;;;2.40;1.10;;;;;;;26.30;27.46;95647.31;5004596;28;20029;-60
2022/07/18 08:23:32;;;;;;;2.28;1.25;;;;;;;26.32;27.56;95644.81;4987908;28;20022;-64
2022/07/18 08:25:57;;;;;;;2.85;1.00;;;;;;;26.36;28.06;95656.22;5004789;28;20441;-67
2022/07/18 08:28:24;;;;;;;3.00;1.10;;;;;;;26.42;27.62;95648.69;5005965;28;20030;-66
2022/07/18 08:30:49;;;;;;;2.97;1.30;;;;;;;26.33;27.55;95641.53;5005130;28;20037;-68
2022/07/18 08:33:15;;;;;;;1.42;1.10;;;;;;;26.37;27.50;95642.00;4985707;28;20475;-62
2022/07/18 08:35:40;;;;;;;2.90;1.30;;;;;;;26.41;27.60;95652.66;5001759;28;20243;-65
2022/07/18 08:38:06;;;;;;;2.78;1.13;;;;;;;26.40;27.38;95645.72;4984418;28;20488;-62
2022/07/18 08:40:31;;;;;;;6.03;1.17;;;;;;;26.44;27.32;95640.69;4983359;28;20017;-65
2022/07/18 08:42:57;;;;;;;1.95;0.90;;;;;;;26.52;26.80;95641.63;4983664;28;20437;-61
2022/07/18 08:45:23;;;;;;;2.10;1.20;;;;;;;26.47;27.26;95650.63;5003735;28;20105;-64
2022/07/18 08:47:50;;;;;;;1.35;0.77;;;;;;;26.49;27.70;95642.66;5005021;28;20029;-63
2022/07/18 08:50:15;;;;;;;3.08;1.00;;;;;;;26.52;27.72;95636.13;5005361;28;20057;-66
2022/07/18 08:52:41;;;;;;;4.97;0.95;;;;;;;26.49;27.71;95642.66;5004217;28;20049;-65
2022/07/18 08:55:07;;;;;;;1.52;0.90;;;;;;;26.50;27.44;95635.91;4983963;28;20085;-62
2022/07/18 08:57:33;;;;;;;1.90;0.85;;;;;;;26.50;28.14;95644.88;4998856;28;20064;-64
2022/07/18 08:59:58;;;;;;;2.22;0.90;;;;;;;26.53;27.99;95637.59;5003645;28;20034;-62
2022/07/18 09:02:27;;;;;;;3.72;0.90;;;;;;;26.56;27.55;95642.06;5003017;28;20346;-61
2022/07/18 09:04:52;;;;;;;2.42;1.00;;;;;;;26.54;27.79;95636.34;5000088;28;20042;-62
2022/07/18 09:07:31;;;;;;;2.85;1.40;;;;;;;26.55;27.50;95637.84;4990556;28;20037;-62
2022/07/18 09:09:58;;;;;;;2.85;1.00;;;;;;;26.56;27.96;95637.34;4997721;28;20033;-70
2022/07/18 09:12:25;;;;;;;3.58;1.00;;;;;;;26.56;28.04;95631.84;5002748;28;20022;-60
2022/07/18 09:20:14;;;;;;;1.75;1.15;;;;;;;26.63;28.16;95638.75;4989081;28;20508;-51
2022/07/18 09:22:40;;;;;;;2.30;0.82;;;;;;;26.64;27.88;95638.22;4994328;28;20109;-50
2022/07/18 09:25:07;;;;;;;1.35;0.80;;;;;;;26.66;28.22;95632.22;4992837;28;20034;-51
2022/07/18 09:27:38;;;;;;;3.97;1.08;;;;;;;26.70;27.90;95635.44;5000274;28;20034;-50
2022/07/18 09:30:14;;;;;;;2.80;1.10;;;;;;;26.67;27.86;95631.00;4998098;28;20037;-52
2022/07/18 09:32:41;;;;;;;1.77;1.00;;;;;;;26.73;28.40;95631.66;4993287;28;20073;-50
2022/07/18 09:35:32;;;;;;;3.17;0.98;;;;;;;26.77;28.32;95628.09;5001311;28;20494;-51
2022/07/18 09:38:01;;;;;;;3.60;1.20;;;;;;;26.91;28.72;95640.66;5016147;28;20045;-52
2022/07/18 09:40:34;;;;;;;2.50;1.10;;;;;;;27.01;28.23;95641.78;5001067;28;20033;-52
2022/07/18 09:43:01;;;;;;;3.05;1.00;;;;;;;27.12;28.27;95633.41;5002889;28;20037;-51
2022/07/18 09:45:31;;;;;;;3.45;1.08;;;;;;;27.03;27.72;95598.13;5000938;28;20544;-51
2022/07/18 09:47:58;;;;;;;2.15;1.15;;;;;;;27.29;27.98;95625.69;4999701;28;20065;-50
2022/07/18 09:50:32;;;;;;;1.75;1.10;;;;;;;27.27;27.88;95598.03;4995541;28;20065;-51
2022/07/18 09:53:19;;;;;;;3.28;1.08;;;;;;;27.58;27.79;95627.53;4997638;28;20064;-51
2022/07/18 09:55:47;;;;;;;2.92;1.20;;;;;;;27.70;27.16;95626.09;4995972;28;20038;-51
2022/07/18 09:58:17;;;;;;;1.92;1.20;;;;;;;27.84;27.69;95637.31;5001178;28;20153;-51
2022/07/18 10:00:43;;;;;;;1.73;1.10;;;;;;;27.94;27.21;95624.69;4998415;28;20088;-52
2022/07/18 10:03:08;;;;;;;2.28;0.88;;;;;;;28.06;27.44;95631.47;4994690;28;20025;-50
2022/07/18 10:05:36;;;;;;;1.88;1.08;;;;;;;28.13;27.22;95625.41;4994527;28;20485;-50
2022/07/18 10:08:04;;;;;;;3.65;1.27;;;;;;;28.25;27.07;95626.66;5000710;28;20110;-51
2022/07/18 10:10:30;;;;;;;3.03;1.38;;;;;;;28.32;26.27;95617.78;4998494;28;20041;-51
2022/07/18 10:12:57;;;;;;;1.88;1.00;;;;;;;28.45;26.83;95620.56;4996433;28;20105;-51
2022/07/18 10:15:24;;;;;;;3.25;1.20;;;;;;;28.58;27.02;95609.56;4997830;28;20037;-51
2022/07/18 10:17:50;;;;;;;3.53;1.20;;;;;;;28.71;27.07;95601.34;5005778;28;20041;-50
2022/07/18 10:20:15;;;;;;;1.98;1.10;;;;;;;28.82;26.66;95597.09;5002261;28;20037;-50
2022/07/18 10:22:44;;;;;;;4.93;1.30;;;;;;;28.82;27.08;95599.84;5000308;28;20117;-50
2022/07/18 10:25:13;;;;;;;2.33;1.30;;;;;;;28.87;27.03;95598.25;4998883;28;20033;-50
2022/07/18 10:28:05;;;;;;;3.23;1.23;;;;;;;29.00;26.87;95590.72;4990385;28;20178;-51
2022/07/18 10:30:37;;;;;;;6.00;1.83;;;;;;;29.03;26.95;95595.16;5013186;28;20390;-50
2022/07/18 10:33:03;;;;;;;4.35;1.30;;;;;;;29.08;26.89;95586.03;4989004;28;20115;-51
2022/07/18 10:36:09;;;;;;;4.22;1.17;;;;;;;29.17;26.66;95588.31;4997204;28;20113;-51
2022/07/18 10:38:35;;;;;;;2.75;1.23;;;;;;;29.27;27.06;95586.63;5000192;28;20029;-52
2022/07/18 10:41:12;;;;;;;3.45;1.02;;;;;;;29.34;26.56;95575.72;4991843;28;20120;-50
2022/07/18 10:43:42;;;;;;;3.63;1.42;;;;;;;29.45;27.11;95574.72;4997263;28;20417;-52
2022/07/18 10:46:09;;;;;;;3.85;1.35;;;;;;;29.49;26.53;95575.84;4995749;28;20026;-51
2022/07/18 10:48:37;;;;;;;2.65;1.38;;;;;;;29.52;27.01;95568.53;4992043;28;20037;-51
2022/07/18 10:51:10;;;;;;;3.17;1.30;;;;;;;29.60;26.74;95574.84;4995601;28;20040;-51
2022/07/18 10:53:54;;;;;;;4.32;1.45;;;;;;;29.67;27.36;95557.66;4998107;28;20036;-51
2022/07/18 10:56:20;;;;;;;3.67;1.38;;;;;;;29.67;27.24;95563.16;4987687;28;20468;-51
2022/07/18 10:58:45;;;;;;;3.45;1.42;;;;;;;29.73;27.88;95562.50;4998822;28;20021;-50
2022/07/18 11:01:17;;;;;;;6.40;1.50;;;;;;;29.73;27.40;95568.00;4991346;28;20433;-50
2022/07/18 11:03:42;;;;;;;5.10;1.63;;;;;;;29.75;27.33;95565.44;4989177;28;20030;-51
2022/07/18 11:06:08;;;;;;;4.57;1.50;;;;;;;29.77;27.60;95562.88;4986737;28;20191;-50
2022/07/18 11:08:33;;;;;;;5.10;1.60;;;;;;;29.71;27.66;95554.00;5011042;28;20058;-51
2022/07/18 11:11:02;;;;;;;3.83;1.55;;;;;;;29.68;27.90;95551.59;5005415;28;20077;-50
2022/07/18 11:13:31;;;;;;;3.33;1.50;;;;;;;29.66;28.80;95556.19;4993303;28;20528;-51
2022/07/18 11:16:12;;;;;;;4.32;1.35;;;;;;;29.59;28.37;95551.34;4988284;28;20042;-50
2022/07/18 11:18:40;;;;;;;7.15;1.70;;;;;;;29.50;28.54;95554.56;4992170;28;20042;-52
2022/07/18 11:21:26;;;;;;;6.18;1.42;;;;;;;29.45;28.82;95550.66;4990277;28;20030;-49
2022/07/18 11:23:52;;;;;;;4.50;1.45;;;;;;;29.33;29.07;95554.22;4989610;28;20436;-50
2022/07/18 11:26:21;;;;;;;2.95;1.50;;;;;;;29.28;28.39;95538.56;4990137;28;20034;-50
2022/07/18 11:28:48;;;;;;;;;;;;;;;29.33;29.20;95545.97;4991643;28;20041;-51
2022/07/18 11:31:15;;;;;;;2.30;1.20;;;;;;;29.19;29.07;95559.00;4988351;28;19928;-51
2022/07/18 11:33:47;;;;;;;2.25;1.30;;;;;;;28.97;29.02;95528.50;4988814;28;20228;-51
2022/07/18 11:36:13;;;;;;;3.42;1.50;;;;;;;29.05;29.46;95543.06;5005446;28;20045;-49
2022/07/18 11:39:00;;;;;;;3.25;1.50;;;;;;;29.04;28.75;95552.59;4991689;28;20200;-51